sensor_id;sensor_type;location;lat;lon;timestamp;temperature;humidity
72919;SHT30;68407;55.694;26.994;2023-09-08T00:00:43;11.3;82.5
72919;SHT30;68407;55.694;26.994;2023-09-08T00:05:43;11.4;82.8
72919;SHT30;68407;55.694;26.994;2023-09-08T00:10:43;11.2;82.3
72919;SHT30;68407;55.694;26.994;2023-09-08T00:16:25;11.1;83.1
72919;SHT30;68407;55.694;26.994;2023-09-08T00:20:57;10.9;83
72919;SHT30;68407;55.694;26.994;2023-09-08T00:25:45;10.8;84.3
72919;SHT30;68407;55.694;26.994;2023-09-08T00:31:25;11.2;84.5
72919;SHT30;68407;55.694;26.994;2023-09-08T00:36:03;11.3;83.4
72919;SHT30;68407;55.694;26.994;2023-09-08T00:40:45;11.1;83.9
72919;SHT30;68407;55.694;26.994;2023-09-08T00:45:43;11.1;83.7
72919;SHT30;68407;55.694;26.994;2023-09-08T00:50:57;11.2;84.3
72919;SHT30;68407;55.694;26.994;2023-09-08T00:55:49;11.3;83.8
72919;SHT30;68407;55.694;26.994;2023-09-08T01:00:43;11.2;83.8
72919;SHT30;68407;55.694;26.994;2023-09-08T01:06:25;11.3;84.3
72919;SHT30;68407;55.694;26.994;2023-09-08T01:11:25;11.3;84.5
72919;SHT30;68407;55.694;26.994;2023-09-08T01:16:11;11.2;84.8
72919;SHT30;68407;55.694;26.994;2023-09-08T01:21:32;11.2;85.3
72919;SHT30;68407;55.694;26.994;2023-09-08T01:25:44;11.2;85.4
72919;SHT30;68407;55.694;26.994;2023-09-08T01:31:11;11.1;85.6
72919;SHT30;68407;55.694;26.994;2023-09-08T01:35:43;11.2;84.2
72919;SHT30;68407;55.694;26.994;2023-09-08T01:40:49;11.1;83.7
72919;SHT30;68407;55.694;26.994;2023-09-08T01:45:59;11.1;83.3
72919;SHT30;68407;55.694;26.994;2023-09-08T01:51:01;10.9;84.8
72919;SHT30;68407;55.694;26.994;2023-09-08T01:56:25;11;84.8
72919;SHT30;68407;55.694;26.994;2023-09-08T02:01:25;11.1;83.9
72919;SHT30;68407;55.694;26.994;2023-09-08T02:06:11;11.2;84.1
72919;SHT30;68407;55.694;26.994;2023-09-08T02:11:25;11.1;84.1
72919;SHT30;68407;55.694;26.994;2023-09-08T02:15:43;10.9;83.4
72919;SHT30;68407;55.694;26.994;2023-09-08T02:21:11;11;83.8
72919;SHT30;68407;55.694;26.994;2023-09-08T02:25:43;10.8;84
72919;SHT30;68407;55.694;26.994;2023-09-08T02:30:43;10.8;84.3
72919;SHT30;68407;55.694;26.994;2023-09-08T02:36:07;10.7;84.6
72919;SHT30;68407;55.694;26.994;2023-09-08T02:40:59;10.8;85.6
72919;SHT30;68407;55.694;26.994;2023-09-08T02:46:09;10.9;85.1
72919;SHT30;68407;55.694;26.994;2023-09-08T02:51:09;10.9;85.6
72919;SHT30;68407;55.694;26.994;2023-09-08T02:56:25;11;85.6
72919;SHT30;68407;55.694;26.994;2023-09-08T03:01:25;11;85.7
72919;SHT30;68407;55.694;26.994;2023-09-08T03:06:03;10.9;85.9
72919;SHT30;68407;55.694;26.994;2023-09-08T03:11:25;10.9;86.1
72919;SHT30;68407;55.694;26.994;2023-09-08T03:16:05;10.8;86.4
72919;SHT30;68407;55.694;26.994;2023-09-08T03:20:43;10.8;86.9
72919;SHT30;68407;55.694;26.994;2023-09-08T03:26:07;11;86.8
72919;SHT30;68407;55.694;26.994;2023-09-08T03:30:53;11.1;85.9
72919;SHT30;68407;55.694;26.994;2023-09-08T03:36:09;11.2;85.5
72919;SHT30;68407;55.694;26.994;2023-09-08T03:41:09;11.3;85.2
72919;SHT30;68407;55.694;26.994;2023-09-08T03:46:25;11.3;85
72919;SHT30;68407;55.694;26.994;2023-09-08T03:51:25;11.3;84.5
72919;SHT30;68407;55.694;26.994;2023-09-08T03:55:57;11.3;84.4
72919;SHT30;68407;55.694;26.994;2023-09-08T04:01:25;11.2;84.9
72919;SHT30;68407;55.694;26.994;2023-09-08T04:06:17;11.2;85
72919;SHT30;68407;55.694;26.994;2023-09-08T04:11:25;11.3;84.9
72919;SHT30;68407;55.694;26.994;2023-09-08T04:15:57;11.5;84.6
72919;SHT30;68407;55.694;26.994;2023-09-08T04:20:53;11.6;84.4
72919;SHT30;68407;55.694;26.994;2023-09-08T04:25:45;11.5;85.2
72919;SHT30;68407;55.694;26.994;2023-09-08T04:31:03;11.7;85.3
72919;SHT30;68407;55.694;26.994;2023-09-08T04:36:25;11.9;85
72919;SHT30;68407;55.694;26.994;2023-09-08T04:41:25;12.2;84.6
72919;SHT30;68407;55.694;26.994;2023-09-08T04:46:03;12.4;84.1
72919;SHT30;68407;55.694;26.994;2023-09-08T04:51:25;12.5;84.3
72919;SHT30;68407;55.694;26.994;2023-09-08T04:55:43;12.7;84.3
72919;SHT30;68407;55.694;26.994;2023-09-08T05:01:03;12.9;84.2
72919;SHT30;68407;55.694;26.994;2023-09-08T05:06:07;13;84.3
72919;SHT30;68407;55.694;26.994;2023-09-08T05:11:17;13.2;83.9
72919;SHT30;68407;55.694;26.994;2023-09-08T05:16:25;13.3;83.5
72919;SHT30;68407;55.694;26.994;2023-09-08T05:21:09;13.4;83.3
72919;SHT30;68407;55.694;26.994;2023-09-08T05:26:25;13.5;82.8
72919;SHT30;68407;55.694;26.994;2023-09-08T05:31:25;13.6;82.6
72919;SHT30;68407;55.694;26.994;2023-09-08T05:35:44;13.8;82.1
72919;SHT30;68407;55.694;26.994;2023-09-08T05:41:25;14;81.5
72919;SHT30;68407;55.694;26.994;2023-09-08T05:46:01;14.2;81.3
72919;SHT30;68407;55.694;26.994;2023-09-08T05:50:43;14.4;81.3
72919;SHT30;68407;55.694;26.994;2023-09-08T05:56:09;14.7;80.6
72919;SHT30;68407;55.694;26.994;2023-09-08T06:01:01;14.9;80.3
72919;SHT30;68407;55.694;26.994;2023-09-08T06:06:09;15;79.4
72919;SHT30;68407;55.694;26.994;2023-09-08T06:11:09;15.1;79.2
72919;SHT30;68407;55.694;26.994;2023-09-08T06:16:25;15.3;79.5
72919;SHT30;68407;55.694;26.994;2023-09-08T06:21:25;15.5;78.3
72919;SHT30;68407;55.694;26.994;2023-09-08T06:25:43;15.6;77.1
72919;SHT30;68407;55.694;26.994;2023-09-08T06:30:43;15.7;76.7
72919;SHT30;68407;55.694;26.994;2023-09-08T06:35:43;15.9;76.5
72919;SHT30;68407;55.694;26.994;2023-09-08T06:40:43;16.1;75.5
72919;SHT30;68407;55.694;26.994;2023-09-08T06:46:23;16.4;75
72919;SHT30;68407;55.694;26.994;2023-09-08T06:51:00;16.7;73.8
72919;SHT30;68407;55.694;26.994;2023-09-08T06:55:55;17;73.5
72919;SHT30;68407;55.694;26.994;2023-09-08T07:01:09;17.2;72.9
72919;SHT30;68407;55.694;26.994;2023-09-08T07:05:55;17.4;72.1
72919;SHT30;68407;55.694;26.994;2023-09-08T07:11:25;17.6;72.1
72919;SHT30;68407;55.694;26.994;2023-09-08T07:16:17;17.8;71
72919;SHT30;68407;55.694;26.994;2023-09-08T07:21:11;18;69.8
72919;SHT30;68407;55.694;26.994;2023-09-08T07:25:45;18.4;69.8
72919;SHT30;68407;55.694;26.994;2023-09-08T07:31:03;18.6;68.6
72919;SHT30;68407;55.694;26.994;2023-09-08T07:36:25;18.7;67.4
72919;SHT30;68407;55.694;26.994;2023-09-08T07:40:53;18.8;66.9
72919;SHT30;68407;55.694;26.994;2023-09-08T07:46:09;19;67
72919;SHT30;68407;55.694;26.994;2023-09-08T07:51:11;19.2;66
72919;SHT30;68407;55.694;26.994;2023-09-08T07:56:11;19.5;65.9
72919;SHT30;68407;55.694;26.994;2023-09-08T08:01:25;19.5;64.8
72919;SHT30;68407;55.694;26.994;2023-09-08T08:06:17;19.7;64.3
72919;SHT30;68407;55.694;26.994;2023-09-08T08:10:43;19.9;64.9
72919;SHT30;68407;55.694;26.994;2023-09-08T08:16:19;20.2;63.4
72919;SHT30;68407;55.694;26.994;2023-09-08T08:20:43;20.2;61.9
72919;SHT30;68407;55.694;26.994;2023-09-08T08:26:23;20.2;62.1
72919;SHT30;68407;55.694;26.994;2023-09-08T08:31:05;20.2;62.7
72919;SHT30;68407;55.694;26.994;2023-09-08T08:35:49;20.3;62.8
72919;SHT30;68407;55.694;26.994;2023-09-08T08:41:07;20.4;60.8
72919;SHT30;68407;55.694;26.994;2023-09-08T08:45:49;20.3;60
72919;SHT30;68407;55.694;26.994;2023-09-08T08:51:25;20.4;60.7
72919;SHT30;68407;55.694;26.994;2023-09-08T08:56:17;20.5;60.9
72919;SHT30;68407;55.694;26.994;2023-09-08T09:01:23;20.6;60.6
72919;SHT30;68407;55.694;26.994;2023-09-08T09:06:01;20.6;59.8
72919;SHT30;68407;55.694;26.994;2023-09-08T09:10:50;20.5;60.1
72919;SHT30;68407;55.694;26.994;2023-09-08T09:16:25;20.5;59.6
72919;SHT30;68407;55.694;26.994;2023-09-08T09:21:00;20.7;60.5
72919;SHT30;68407;55.694;26.994;2023-09-08T09:25:49;20.8;60.1
72919;SHT30;68407;55.694;26.994;2023-09-08T09:30:57;20.9;60
72919;SHT30;68407;55.694;26.994;2023-09-08T09:36:05;21;60.2
72919;SHT30;68407;55.694;26.994;2023-09-08T09:41:25;21.2;60.3
72919;SHT30;68407;55.694;26.994;2023-09-08T09:46:17;21.4;59.9
72919;SHT30;68407;55.694;26.994;2023-09-08T09:50:43;21.5;59.9
72919;SHT30;68407;55.694;26.994;2023-09-08T09:55:44;21.6;59.4
72919;SHT30;68407;55.694;26.994;2023-09-08T10:00:43;21.6;59.1
72919;SHT30;68407;55.694;26.994;2023-09-08T10:06:23;21.7;59.4
72919;SHT30;68407;55.694;26.994;2023-09-08T10:10:59;21.8;59.5
72919;SHT30;68407;55.694;26.994;2023-09-08T10:15:56;22;58.8
72919;SHT30;68407;55.694;26.994;2023-09-08T10:21:09;22.1;57.9
72919;SHT30;68407;55.694;26.994;2023-09-08T10:25:50;22;57.8
72919;SHT30;68407;55.694;26.994;2023-09-08T10:31:25;22.1;58.3
72919;SHT30;68407;55.694;26.994;2023-09-08T10:36:17;22.2;58.1
72919;SHT30;68407;55.694;26.994;2023-09-08T10:40:43;22.3;56.8
72919;SHT30;68407;55.694;26.994;2023-09-08T10:45:43;22.3;55.1
72919;SHT30;68407;55.694;26.994;2023-09-08T10:50:43;22.4;55.3
72919;SHT30;68407;55.694;26.994;2023-09-08T10:56:26;22.4;56
72919;SHT30;68407;55.694;26.994;2023-09-08T11:00:44;22.4;56.7
72919;SHT30;68407;55.694;26.994;2023-09-08T11:05:55;22.6;56.8
72919;SHT30;68407;55.694;26.994;2023-09-08T11:11:10;22.7;55.5
72919;SHT30;68407;55.694;26.994;2023-09-08T11:16:17;22.7;54.9
72919;SHT30;68407;55.694;26.994;2023-09-08T11:21:25;22.7;54.6
72919;SHT30;68407;55.694;26.994;2023-09-08T11:25:45;22.6;54.6
72919;SHT30;68407;55.694;26.994;2023-09-08T11:30:45;22.3;54.6
72919;SHT30;68407;55.694;26.994;2023-09-08T11:36:13;22.4;55.9
72919;SHT30;68407;55.694;26.994;2023-09-08T11:40:43;22.7;55.4
72919;SHT30;68407;55.694;26.994;2023-09-08T11:46:25;22.7;54.9
72919;SHT30;68407;55.694;26.994;2023-09-08T11:51:15;22.7;54.6
72919;SHT30;68407;55.694;26.994;2023-09-08T11:55:55;22.7;54.1
72919;SHT30;68407;55.694;26.994;2023-09-08T12:01:09;22.8;54.5
72919;SHT30;68407;55.694;26.994;2023-09-08T12:06:17;22.7;54.6
72919;SHT30;68407;55.694;26.994;2023-09-08T12:11:30;22.8;54.8
72919;SHT30;68407;55.694;26.994;2023-09-08T12:16:17;22.7;54.2
72919;SHT30;68407;55.694;26.994;2023-09-08T12:21:03;22.5;54.9
72919;SHT30;68407;55.694;26.994;2023-09-08T12:25:44;22.8;55.2
72919;SHT30;68407;55.694;26.994;2023-09-08T12:30:43;22.9;55
72919;SHT30;68407;55.694;26.994;2023-09-08T12:36:25;23;54.7
72919;SHT30;68407;55.694;26.994;2023-09-08T12:40:43;23;54.7
72919;SHT30;68407;55.694;26.994;2023-09-08T12:45:49;23.2;55.2
72919;SHT30;68407;55.694;26.994;2023-09-08T12:51:09;23.4;55.6
72919;SHT30;68407;55.694;26.994;2023-09-08T12:56:17;23.6;54.8
72919;SHT30;68407;55.694;26.994;2023-09-08T13:01:25;23.4;54.3
72919;SHT30;68407;55.694;26.994;2023-09-08T13:06:25;23.2;54
72919;SHT30;68407;55.694;26.994;2023-09-08T13:10:49;23.2;54.6
72919;SHT30;68407;55.694;26.994;2023-09-08T13:15:55;23.1;55.4
72919;SHT30;68407;55.694;26.994;2023-09-08T13:20:43;23.1;55.3
72919;SHT30;68407;55.694;26.994;2023-09-08T13:26:23;23.1;55.4
72919;SHT30;68407;55.694;26.994;2023-09-08T13:30:59;23;54.3
72919;SHT30;68407;55.694;26.994;2023-09-08T13:35:55;23;55.2
72919;SHT30;68407;55.694;26.994;2023-09-08T13:41:13;23;54.6
72919;SHT30;68407;55.694;26.994;2023-09-08T13:46:17;22.8;53.2
72919;SHT30;68407;55.694;26.994;2023-09-08T13:51:25;22.8;54
72919;SHT30;68407;55.694;26.994;2023-09-08T13:56:17;22.8;54.7
72919;SHT30;68407;55.694;26.994;2023-09-08T14:01:11;22.9;55.6
72919;SHT30;68407;55.694;26.994;2023-09-08T14:05:49;22.8;55.5
72919;SHT30;68407;55.694;26.994;2023-09-08T14:10:53;22.8;54.5
72919;SHT30;68407;55.694;26.994;2023-09-08T14:16:27;22.8;53.8
72919;SHT30;68407;55.694;26.994;2023-09-08T14:20:43;22.7;53.2
72919;SHT30;68407;55.694;26.994;2023-09-08T14:25:57;22.8;53.8
72919;SHT30;68407;55.694;26.994;2023-09-08T14:31:11;22.9;54.3
72919;SHT30;68407;55.694;26.994;2023-09-08T14:36:16;22.7;53.9
72919;SHT30;68407;55.694;26.994;2023-09-08T14:41:27;22.5;54.1
72919;SHT30;68407;55.694;26.994;2023-09-08T14:46:17;22.3;54.8
72919;SHT30;68407;55.694;26.994;2023-09-08T14:50:49;22.5;54.6
72919;SHT30;68407;55.694;26.994;2023-09-08T14:55:57;22.4;55
72919;SHT30;68407;55.694;26.994;2023-09-08T15:00:49;22.5;55.4
72919;SHT30;68407;55.694;26.994;2023-09-08T15:06:17;22.4;56.1
72919;SHT30;68407;55.694;26.994;2023-09-08T15:11:13;22;55.5
72919;SHT30;68407;55.694;26.994;2023-09-08T15:15:57;22.1;56.3
72919;SHT30;68407;55.694;26.994;2023-09-08T15:21:13;22;56
72919;SHT30;68407;55.694;26.994;2023-09-08T15:26:27;21.9;56.5
72919;SHT30;68407;55.694;26.994;2023-09-08T15:31:27;22;56.8
72919;SHT30;68407;55.694;26.994;2023-09-08T15:36:27;22.1;57.2
72919;SHT30;68407;55.694;26.994;2023-09-08T15:41:21;22.1;57.3
72919;SHT30;68407;55.694;26.994;2023-09-08T15:45:43;22.3;57.3
72919;SHT30;68407;55.694;26.994;2023-09-08T15:51:27;22.4;57.8
72919;SHT30;68407;55.694;26.994;2023-09-08T15:56:15;22.4;57.8
72919;SHT30;68407;55.694;26.994;2023-09-08T16:01:13;22.2;59.5
72919;SHT30;68407;55.694;26.994;2023-09-08T16:05:57;21.9;60.3
72919;SHT30;68407;55.694;26.994;2023-09-08T16:10:45;21.5;62.5
72919;SHT30;68407;55.694;26.994;2023-09-08T16:16:27;21;65.2
72919;SHT30;68407;55.694;26.994;2023-09-08T16:21:03;20.6;67.3
72919;SHT30;68407;55.694;26.994;2023-09-08T16:25:43;20.1;68.1
72919;SHT30;68407;55.694;26.994;2023-09-08T16:30:43;19.8;69.6
72919;SHT30;68407;55.694;26.994;2023-09-08T16:35:45;19.3;71.1
72919;SHT30;68407;55.694;26.994;2023-09-08T16:41:27;19;71.9
72919;SHT30;68407;55.694;26.994;2023-09-08T16:46:15;18.5;74
72919;SHT30;68407;55.694;26.994;2023-09-08T16:51:05;18.3;74.7
72919;SHT30;68407;55.694;26.994;2023-09-08T16:55:49;18.2;74.8
72919;SHT30;68407;55.694;26.994;2023-09-08T17:00:45;18.2;74.8
72919;SHT30;68407;55.694;26.994;2023-09-08T17:06:25;18.1;74.8
72919;SHT30;68407;55.694;26.994;2023-09-08T17:10:43;18.1;74.8
72919;SHT30;68407;55.694;26.994;2023-09-08T17:15:49;18.2;74.7
72919;SHT30;68407;55.694;26.994;2023-09-08T17:20:54;18.1;74.8
72919;SHT30;68407;55.694;26.994;2023-09-08T17:25:43;18;75.4
72919;SHT30;68407;55.694;26.994;2023-09-08T17:31:27;17.9;75.7
72919;SHT30;68407;55.694;26.994;2023-09-08T17:36:17;17.8;76.1
72919;SHT30;68407;55.694;26.994;2023-09-08T17:41:27;17.7;76.3
72919;SHT30;68407;55.694;26.994;2023-09-08T17:45:51;17.6;76.7
72919;SHT30;68407;55.694;26.994;2023-09-08T17:51:25;17.5;77.1
72919;SHT30;68407;55.694;26.994;2023-09-08T17:56:25;17.5;77.2
72919;SHT30;68407;55.694;26.994;2023-09-08T18:01:01;17.5;77.1
72919;SHT30;68407;55.694;26.994;2023-09-08T18:05:49;17.3;77
72919;SHT30;68407;55.694;26.994;2023-09-08T18:10:43;17.2;76.8
72919;SHT30;68407;55.694;26.994;2023-09-08T18:16:17;17.3;75.9
72919;SHT30;68407;55.694;26.994;2023-09-08T18:21:25;17.4;75.7
72919;SHT30;68407;55.694;26.994;2023-09-08T18:26:15;17.4;75.8
72919;SHT30;68407;55.694;26.994;2023-09-08T18:30:59;17.4;75.8
72919;SHT30;68407;55.694;26.994;2023-09-08T18:35:49;17.4;75.9
72919;SHT30;68407;55.694;26.994;2023-09-08T18:40:46;17.3;76.4
72919;SHT30;68407;55.694;26.994;2023-09-08T18:46:25;17.3;76.6
72919;SHT30;68407;55.694;26.994;2023-09-08T18:51:05;17.2;77
72919;SHT30;68407;55.694;26.994;2023-09-08T18:55:51;17.1;77.4
72919;SHT30;68407;55.694;26.994;2023-09-08T19:01:05;17.2;77.2
72919;SHT30;68407;55.694;26.994;2023-09-08T19:05:51;17.2;77
72919;SHT30;68407;55.694;26.994;2023-09-08T19:11:29;17.2;77.1
72919;SHT30;68407;55.694;26.994;2023-09-08T19:16:29;17.2;76.8
72919;SHT30;68407;55.694;26.994;2023-09-08T19:21:15;17.3;76.6
72919;SHT30;68407;55.694;26.994;2023-09-08T19:26:03;17.1;77
72919;SHT30;68407;55.694;26.994;2023-09-08T19:31:17;17;76.7
72919;SHT30;68407;55.694;26.994;2023-09-08T19:36:29;17;76.3
72919;SHT30;68407;55.694;26.994;2023-09-08T19:41:17;17;75.7
72919;SHT30;68407;55.694;26.994;2023-09-08T19:46:01;17.1;75.2
72919;SHT30;68407;55.694;26.994;2023-09-08T19:50:43;17;76.6
72919;SHT30;68407;55.694;26.994;2023-09-08T19:56:13;16.8;77.2
72919;SHT30;68407;55.694;26.994;2023-09-08T20:01:29;16.8;76.9
72919;SHT30;68407;55.694;26.994;2023-09-08T20:05:45;16.8;77.2
72919;SHT30;68407;55.694;26.994;2023-09-08T20:11:29;16.7;77.2
72919;SHT30;68407;55.694;26.994;2023-09-08T20:15:57;16.6;77.1
72919;SHT30;68407;55.694;26.994;2023-09-08T20:20:52;16.5;77.1
72919;SHT30;68407;55.694;26.994;2023-09-08T20:26:29;16.5;77.3
72919;SHT30;68407;55.694;26.994;2023-09-08T20:30:43;16.4;77.1
72919;SHT30;68407;55.694;26.994;2023-09-08T20:35:43;16.3;77.4
72919;SHT30;68407;55.694;26.994;2023-09-08T20:41:01;16.2;77.6
72919;SHT30;68407;55.694;26.994;2023-09-08T20:46:21;16;77.9
72919;SHT30;68407;55.694;26.994;2023-09-08T20:51:29;15.9;78.5
72919;SHT30;68407;55.694;26.994;2023-09-08T20:56:19;15.8;78.7
72919;SHT30;68407;55.694;26.994;2023-09-08T21:00:52;15.7;79
72919;SHT30;68407;55.694;26.994;2023-09-08T21:06:21;15.6;79.4
72919;SHT30;68407;55.694;26.994;2023-09-08T21:11:20;15.5;79.6
72919;SHT30;68407;55.694;26.994;2023-09-08T21:16:29;15.6;79.4
72919;SHT30;68407;55.694;26.994;2023-09-08T21:20:43;15.7;79.3
72919;SHT30;68407;55.694;26.994;2023-09-08T21:25:43;15.6;79.1
72919;SHT30;68407;55.694;26.994;2023-09-08T21:31:11;15.4;79.6
72919;SHT30;68407;55.694;26.994;2023-09-08T21:36:17;15.3;80.2
72919;SHT30;68407;55.694;26.994;2023-09-08T21:41:11;15.3;80.4
72919;SHT30;68407;55.694;26.994;2023-09-08T21:46:17;15.2;80.4
72919;SHT30;68407;55.694;26.994;2023-09-08T21:50:45;15;81
72919;SHT30;68407;55.694;26.994;2023-09-08T21:55:57;15;80.9
72919;SHT30;68407;55.694;26.994;2023-09-08T22:01:05;14.8;81.4
72919;SHT30;68407;55.694;26.994;2023-09-08T22:06:29;14.9;81.6
72919;SHT30;68407;55.694;26.994;2023-09-08T22:11:01;14.8;81.6
72919;SHT30;68407;55.694;26.994;2023-09-08T22:15:43;14.8;81.4
72919;SHT30;68407;55.694;26.994;2023-09-08T22:20:59;14.7;81.7
72919;SHT30;68407;55.694;26.994;2023-09-08T22:25:45;14.8;81.7
72919;SHT30;68407;55.694;26.994;2023-09-08T22:31:31;14.8;81.4
72919;SHT30;68407;55.694;26.994;2023-09-08T22:36:29;14.8;81.6
72919;SHT30;68407;55.694;26.994;2023-09-08T22:40:45;14.8;80.9
72919;SHT30;68407;55.694;26.994;2023-09-08T22:45:43;14.4;81.3
72919;SHT30;68407;55.694;26.994;2023-09-08T22:51:19;14.1;82.2
72919;SHT30;68407;55.694;26.994;2023-09-08T22:56:29;14;82.6
72919;SHT30;68407;55.694;26.994;2023-09-08T23:00:43;14.2;83
72919;SHT30;68407;55.694;26.994;2023-09-08T23:06:15;14.3;82.4
72919;SHT30;68407;55.694;26.994;2023-09-08T23:11:05;14.4;82.3
72919;SHT30;68407;55.694;26.994;2023-09-08T23:16:29;14.3;82.4
72919;SHT30;68407;55.694;26.994;2023-09-08T23:21:29;14.2;82.5
72919;SHT30;68407;55.694;26.994;2023-09-08T23:26:17;14.2;82.8
72919;SHT30;68407;55.694;26.994;2023-09-08T23:31:07;14.2;82.8
72919;SHT30;68407;55.694;26.994;2023-09-08T23:35:49;14.3;82.5
72919;SHT30;68407;55.694;26.994;2023-09-08T23:40:43;14.3;82.4
72919;SHT30;68407;55.694;26.994;2023-09-08T23:46:27;14.4;82.1
72919;SHT30;68407;55.694;26.994;2023-09-08T23:51:05;14.4;81.9
72919;SHT30;68407;55.694;26.994;2023-09-08T23:55:59;14.3;82.3
